createdAt,value
2023-03-17T00:03:24.666Z,4.07
2023-03-17T00:06:47.918Z,4.05
2023-03-17T00:10:06.278Z,4.45
2023-03-17T00:12:40.473Z,4.00
2023-03-17T00:15:20.756Z,4.07
2023-03-17T00:17:56.782Z,4.03
2023-03-17T00:20:59.144Z,4.25
2023-03-17T00:23:31.993Z,4.93
2023-03-17T00:26:06.575Z,4.30
2023-03-17T00:29:04.000Z,4.75
2023-03-17T00:32:26.108Z,4.53
2023-03-17T00:35:25.846Z,4.45
2023-03-17T00:42:18.188Z,4.47
2023-03-17T00:44:49.261Z,4.93
2023-03-17T00:47:20.429Z,5.20
2023-03-17T00:50:03.433Z,4.63
2023-03-17T00:52:42.015Z,4.53
2023-03-17T00:55:32.072Z,4.22
2023-03-17T00:58:35.125Z,4.97
2023-03-17T01:01:06.327Z,4.17
2023-03-17T01:04:06.802Z,4.30
2023-03-17T01:06:40.212Z,4.60
2023-03-17T01:12:29.472Z,4.38
2023-03-17T01:15:05.956Z,4.03
2023-03-17T01:17:34.436Z,3.97
2023-03-17T01:23:34.621Z,4.55
2023-03-17T01:26:06.607Z,4.50
2023-03-17T01:28:45.588Z,4.33
2023-03-17T01:31:20.684Z,4.15
2023-03-17T01:34:04.351Z,4.30
2023-03-17T01:36:43.308Z,4.32
2023-03-17T01:39:12.891Z,4.75
2023-03-17T01:42:17.633Z,4.30
2023-03-17T01:45:01.775Z,5.43
2023-03-17T01:47:31.989Z,5.45
2023-03-17T01:50:14.614Z,5.53
2023-03-17T01:53:07.864Z,5.35
2023-03-17T01:56:25.639Z,4.77
2023-03-17T01:59:04.252Z,4.90
2023-03-17T02:02:02.101Z,4.55
2023-03-17T02:04:37.906Z,4.07
2023-03-17T02:07:17.073Z,4.45
2023-03-17T02:10:10.244Z,4.80
2023-03-17T02:13:05.802Z,4.95
2023-03-17T02:15:46.346Z,5.13
2023-03-17T02:18:40.568Z,4.60
2023-03-17T02:22:03.769Z,4.68
2023-03-17T02:25:05.345Z,4.87
2023-03-17T02:28:06.348Z,4.80
2023-03-17T02:31:35.074Z,4.57
2023-03-17T02:34:06.598Z,4.90
2023-03-17T02:37:05.744Z,4.40
2023-03-17T02:40:03.045Z,5.00
2023-03-17T02:42:44.178Z,4.57
2023-03-17T02:45:59.563Z,5.40
2023-03-17T02:49:04.847Z,4.93
2023-03-17T02:52:02.711Z,4.65
2023-03-17T02:55:13.104Z,4.27
2023-03-17T02:58:04.555Z,4.80
2023-03-17T03:03:56.966Z,4.78
2023-03-17T03:07:11.239Z,5.10
2023-03-17T03:10:05.818Z,4.60
2023-03-17T03:13:05.023Z,4.25
2023-03-17T03:16:04.227Z,4.78
2023-03-17T03:20:08.375Z,4.95
2023-03-17T03:22:58.735Z,4.53
2023-03-17T03:26:05.517Z,4.40
2023-03-17T03:28:34.371Z,3.97
2023-03-17T03:31:06.078Z,4.10
2023-03-17T03:34:04.949Z,4.78
2023-03-17T03:37:01.170Z,4.22
2023-03-17T03:40:34.916Z,4.57
2023-03-17T03:43:13.012Z,4.43
2023-03-17T03:46:35.795Z,4.55
2023-03-17T03:49:04.467Z,4.60
2023-03-17T03:52:37.944Z,4.85
2023-03-17T03:56:03.560Z,5.00
2023-03-17T03:59:34.206Z,4.28
2023-03-17T04:06:05.896Z,4.20
2023-03-17T04:11:37.363Z,4.73
2023-03-17T04:14:06.454Z,4.70
2023-03-17T04:16:46.502Z,4.50
2023-03-17T04:20:02.904Z,4.55
2023-03-17T04:23:10.116Z,4.50
2023-03-17T04:26:37.992Z,3.93
2023-03-17T04:33:02.634Z,4.80
2023-03-17T04:40:01.749Z,4.20
2023-03-17T04:43:03.655Z,4.73
2023-03-17T04:46:00.928Z,4.47
2023-03-17T04:52:36.298Z,3.95
2023-03-17T04:56:04.177Z,4.20
2023-03-17T05:01:39.084Z,4.47
2023-03-17T05:05:20.114Z,4.38
2023-03-17T05:08:06.852Z,3.92
2023-03-17T05:11:04.724Z,4.38
2023-03-17T05:14:01.755Z,4.40
2023-03-17T05:17:04.428Z,5.15
2023-03-17T05:20:04.698Z,4.20
2023-03-17T05:22:47.899Z,4.00
2023-03-17T05:25:45.808Z,4.30
2023-03-17T05:28:37.107Z,4.03
2023-03-17T05:31:05.538Z,4.25
2023-03-17T05:33:54.332Z,4.15
2023-03-17T05:36:41.717Z,3.83
2023-03-17T05:39:36.642Z,4.20
2023-03-17T05:42:05.208Z,4.07
2023-03-17T05:45:18.364Z,4.82
2023-03-17T05:48:07.551Z,4.03
2023-03-17T05:54:34.626Z,4.15
2023-03-17T05:57:05.762Z,4.00
2023-03-17T06:06:07.217Z,4.07
2023-03-17T06:13:04.100Z,3.83
2023-03-17T06:16:03.980Z,3.88
2023-03-17T06:19:07.509Z,7.25
2023-03-17T06:22:03.988Z,4.47
2023-03-17T06:25:02.681Z,4.72
2023-03-17T06:28:02.945Z,4.40
2023-03-17T06:30:34.436Z,3.83
2023-03-17T06:33:06.964Z,3.80
2023-03-17T06:39:54.160Z,5.00
2023-03-17T06:43:01.375Z,4.33
2023-03-17T06:45:34.369Z,4.03
2023-03-17T06:48:04.054Z,3.90
2023-03-17T06:51:03.575Z,3.83
2023-03-17T06:53:38.668Z,3.78
2023-03-17T06:56:32.138Z,4.40
2023-03-17T06:59:04.958Z,4.00
2023-03-17T07:08:03.254Z,4.50
2023-03-17T07:14:02.223Z,4.30
2023-03-17T07:16:33.141Z,4.13
2023-03-17T07:22:04.778Z,4.70
2023-03-17T07:24:54.242Z,4.57
2023-03-17T07:27:35.141Z,4.35
2023-03-17T07:30:56.046Z,4.70
2023-03-17T07:34:07.073Z,5.20
2023-03-17T07:37:36.777Z,3.78
2023-03-17T07:40:06.450Z,3.87
2023-03-17T07:43:03.654Z,4.43
2023-03-17T07:45:37.150Z,4.35
2023-03-17T07:49:04.565Z,4.70
2023-03-17T07:51:05.608Z,4.20
2023-03-17T07:54:06.502Z,4.20
2023-03-17T07:56:38.205Z,4.47
2023-03-17T07:59:06.604Z,4.65
2023-03-17T08:02:03.093Z,4.18
2023-03-17T08:05:04.424Z,4.60
2023-03-17T08:08:04.286Z,4.30
2023-03-17T08:11:03.954Z,4.18
2023-03-17T08:14:04.998Z,4.35
2023-03-17T08:27:04.040Z,4.22
2023-03-17T08:29:36.227Z,4.70
2023-03-17T08:32:06.148Z,4.80
2023-03-17T08:38:22.330Z,4.30
2023-03-17T08:42:06.088Z,4.50
2023-03-17T08:45:04.452Z,4.35
2023-03-17T08:55:23.380Z,4.03
2023-03-17T09:01:13.585Z,4.15
2023-03-17T09:07:15.278Z,4.00
2023-03-17T09:09:47.808Z,3.63
2023-03-17T09:12:17.178Z,3.40
2023-03-17T09:14:48.061Z,3.92
2023-03-17T09:17:24.798Z,4.15
2023-03-17T09:19:54.686Z,4.03
2023-03-17T09:22:41.607Z,3.40
2023-03-17T09:25:11.056Z,3.30
2023-03-17T09:27:41.929Z,3.72
2023-03-17T09:30:16.609Z,3.60
2023-03-17T09:33:58.865Z,3.40
2023-03-17T09:45:19.387Z,3.80
2023-03-17T09:49:04.936Z,3.63
2023-03-17T09:52:03.884Z,3.63
2023-03-17T09:54:42.044Z,3.30
2023-03-17T09:57:22.850Z,3.47
2023-03-17T10:00:02.053Z,3.08
2023-03-17T10:02:34.918Z,3.03
2023-03-17T10:05:12.829Z,3.63
2023-03-17T10:08:00.907Z,3.87
2023-03-17T10:10:36.359Z,3.80
2023-03-17T10:13:12.064Z,3.22
2023-03-17T10:15:50.830Z,3.80
2023-03-17T10:18:24.728Z,3.42
2023-03-17T10:20:57.222Z,3.40
2023-03-17T10:23:31.315Z,3.55
2023-03-17T10:26:05.435Z,3.60
2023-03-17T10:28:36.107Z,3.15
2023-03-17T10:31:16.487Z,3.00
2023-03-17T10:33:45.213Z,3.37
2023-03-17T10:36:17.507Z,3.15
2023-03-17T10:38:54.968Z,3.63
2023-03-17T10:41:23.467Z,3.17
2023-03-17T10:43:52.070Z,3.60
2023-03-17T10:46:24.475Z,4.10
2023-03-17T10:49:07.897Z,3.28
2023-03-17T10:51:40.607Z,3.70
2023-03-17T10:54:18.051Z,2.97
2023-03-17T10:56:49.829Z,3.20
2023-03-17T10:59:20.990Z,3.00
2023-03-17T11:01:54.122Z,3.28
2023-03-17T11:04:30.244Z,3.33
2023-03-17T11:07:00.293Z,3.35
2023-03-17T11:09:36.397Z,3.30
2023-03-17T11:12:06.870Z,2.90
2023-03-17T11:14:37.750Z,3.08
2023-03-17T11:17:18.693Z,3.00
2023-03-17T11:19:53.149Z,2.85
2023-03-17T11:22:30.113Z,3.10
2023-03-17T11:25:06.449Z,3.00
2023-03-17T11:27:37.224Z,2.50
2023-03-17T11:30:17.827Z,2.60
2023-03-17T11:32:51.814Z,2.20
2023-03-17T11:35:43.636Z,2.67
2023-03-17T11:38:25.943Z,3.17
2023-03-17T11:41:17.281Z,3.25
2023-03-17T11:44:06.487Z,3.00
2023-03-17T11:46:43.492Z,2.78
2023-03-17T11:49:15.428Z,3.10
2023-03-17T11:51:54.838Z,2.57
2023-03-17T11:54:27.957Z,2.70
2023-03-17T11:57:01.261Z,2.70
2023-03-17T11:59:39.159Z,2.90
2023-03-17T12:02:20.238Z,2.75
2023-03-17T12:04:54.550Z,2.70
2023-03-17T12:07:27.041Z,2.60
2023-03-17T12:10:04.549Z,2.40
2023-03-17T12:12:39.775Z,2.50
2023-03-17T12:15:16.741Z,2.90
2023-03-17T12:17:52.682Z,2.60
2023-03-17T12:20:38.794Z,2.35
2023-03-17T12:24:06.481Z,2.33
2023-03-17T12:27:05.692Z,2.35
2023-03-17T12:34:08.037Z,2.10
2023-03-17T12:37:05.931Z,2.50
2023-03-17T12:57:04.773Z,2.30
2023-03-17T13:00:40.599Z,2.50
2023-03-17T13:28:09.012Z,2.40
2023-03-17T13:31:16.429Z,2.03
2023-03-17T13:33:47.436Z,2.28
2023-03-17T13:36:32.546Z,2.28
2023-03-17T13:44:06.695Z,3.78
2023-03-17T14:04:39.308Z,2.35
2023-03-17T14:14:15.088Z,2.67
2023-03-17T14:15:49.644Z,2.72
2023-03-17T14:24:55.120Z,2.80
2023-03-17T14:32:05.783Z,2.40
2023-03-17T14:35:05.163Z,3.10
2023-03-17T14:55:17.754Z,3.67
2023-03-17T14:59:41.452Z,2.85
2023-03-17T15:02:58.470Z,3.17
2023-03-17T15:10:03.323Z,3.05
2023-03-17T15:13:05.072Z,3.05
2023-03-17T15:16:03.307Z,3.28
2023-03-17T15:18:57.897Z,3.40
2023-03-17T15:25:38.647Z,2.78
2023-03-17T15:28:38.724Z,3.20
2023-03-17T15:32:03.998Z,3.20
2023-03-17T16:16:41.079Z,4.15
2023-03-17T16:20:34.361Z,4.40
2023-03-17T16:23:08.265Z,5.53
2023-03-17T16:31:05.756Z,5.30
2023-03-17T16:34:04.931Z,4.70
2023-03-17T16:37:39.486Z,4.53
2023-03-17T16:40:48.669Z,4.20
2023-03-17T16:43:45.056Z,4.68
2023-03-17T16:47:02.525Z,4.78
2023-03-17T16:49:54.619Z,4.60
2023-03-17T16:52:40.614Z,4.23
2023-03-17T16:55:11.414Z,4.95
2023-03-17T16:58:23.555Z,4.22
2023-03-17T17:01:31.257Z,5.10
2023-03-17T17:04:24.260Z,4.93
2023-03-17T17:07:34.212Z,4.93
2023-03-17T17:10:44.515Z,5.20
2023-03-17T17:13:47.130Z,5.00
2023-03-17T17:16:35.375Z,4.35
2023-03-17T17:19:04.472Z,5.10
2023-03-17T17:21:36.776Z,4.37
2023-03-17T17:24:06.728Z,5.00
2023-03-17T17:26:37.379Z,5.00
2023-03-17T17:29:07.574Z,4.82
2023-03-17T17:31:51.912Z,4.50
2023-03-17T17:34:33.374Z,4.50
2023-03-17T17:37:10.787Z,4.35
2023-03-17T17:40:45.506Z,4.85
2023-03-17T17:43:04.640Z,31.50
2023-03-17T17:48:54.229Z,16.23
2023-03-17T17:51:52.958Z,6.13
2023-03-17T17:54:29.346Z,5.03
2023-03-17T17:57:14.082Z,4.55
2023-03-17T17:59:49.862Z,4.85
2023-03-17T18:02:30.810Z,5.17
2023-03-17T18:05:03.840Z,5.13
2023-03-17T18:07:34.387Z,5.25
2023-03-17T18:10:05.321Z,5.13
2023-03-17T18:12:39.998Z,5.32
2023-03-17T18:15:11.334Z,5.00
2023-03-17T18:17:44.266Z,4.68
2023-03-17T18:20:37.889Z,5.15
2023-03-17T18:23:08.070Z,5.10
2023-03-17T18:31:36.143Z,5.80
2023-03-17T18:34:10.252Z,6.70
2023-03-17T18:36:48.265Z,6.03
2023-03-17T18:39:25.800Z,6.22
2023-03-17T18:42:02.076Z,6.30
2023-03-17T18:44:33.541Z,7.35
2023-03-17T18:47:19.474Z,7.45
2023-03-17T18:50:08.228Z,7.97
2023-03-17T18:52:51.524Z,7.45
2023-03-17T18:55:32.158Z,7.60
2023-03-17T18:58:18.854Z,7.65
2023-03-17T19:01:00.697Z,8.13
2023-03-17T19:03:42.920Z,8.18
2023-03-17T19:06:36.226Z,7.68
2023-03-17T19:09:11.142Z,7.70
2023-03-17T19:12:00.288Z,8.25
2023-03-17T19:14:34.137Z,8.30
2023-03-17T19:17:03.159Z,8.32
2023-03-17T19:19:35.425Z,8.32
2023-03-17T19:22:06.173Z,8.60
2023-03-17T19:24:45.497Z,7.85
2023-03-17T19:27:25.222Z,8.82
2023-03-17T19:29:55.574Z,8.18
2023-03-17T19:32:30.373Z,8.43
2023-03-17T19:35:03.970Z,9.03
2023-03-17T19:37:47.573Z,9.20
2023-03-17T19:40:34.316Z,15.15
2023-03-17T19:43:04.795Z,17.65
2023-03-17T19:45:38.062Z,19.33
2023-03-17T19:48:21.530Z,17.27
2023-03-17T19:50:52.798Z,16.80
2023-03-17T19:53:28.915Z,12.82
2023-03-17T19:56:05.316Z,10.52
2023-03-17T19:58:36.195Z,10.10
2023-03-17T20:01:05.508Z,8.60
2023-03-17T20:03:43.773Z,9.15
2023-03-17T20:06:17.728Z,9.10
2023-03-17T20:08:54.896Z,8.75
2023-03-17T20:11:24.118Z,9.15
2023-03-17T20:13:58.870Z,8.73
2023-03-17T20:17:01.885Z,9.20
2023-03-17T20:19:43.433Z,9.48
2023-03-17T20:22:14.946Z,14.50
2023-03-17T20:24:54.351Z,14.85
2023-03-17T20:27:33.248Z,17.33
2023-03-17T20:30:05.333Z,16.98
2023-03-17T20:32:40.697Z,15.02
2023-03-17T20:35:21.432Z,15.45
2023-03-17T20:38:05.738Z,14.73
2023-03-17T20:40:39.596Z,14.70
2023-03-17T20:43:08.176Z,13.00
2023-03-17T20:49:39.121Z,14.07
2023-03-17T20:55:06.450Z,12.17
2023-03-17T20:58:32.032Z,11.77
2023-03-17T21:01:25.868Z,11.27
2023-03-17T21:04:11.407Z,11.73
2023-03-17T21:06:57.774Z,10.93
2023-03-17T21:09:41.434Z,10.23
2023-03-17T21:12:41.680Z,10.77
2023-03-17T21:15:14.801Z,10.10
2023-03-17T21:17:45.467Z,9.60
2023-03-17T21:20:18.277Z,10.13
2023-03-17T21:22:58.501Z,9.80
2023-03-17T21:25:28.351Z,9.70
2023-03-17T21:27:59.268Z,9.55
2023-03-17T21:30:37.088Z,9.02
2023-03-17T21:33:06.056Z,9.13
2023-03-17T21:36:25.582Z,9.17
2023-03-17T21:39:02.854Z,9.75
2023-03-17T21:41:36.407Z,9.32
2023-03-17T21:44:05.905Z,11.27
2023-03-17T21:46:46.712Z,11.27
2023-03-17T21:49:24.945Z,9.27
2023-03-17T21:52:07.312Z,8.18
2023-03-17T21:54:39.346Z,8.45
2023-03-17T21:57:16.802Z,8.75
2023-03-17T22:00:08.322Z,8.48
2023-03-17T22:02:43.034Z,8.27
2023-03-17T22:05:29.211Z,8.75
2023-03-17T22:08:04.090Z,8.45
2023-03-17T22:10:53.315Z,9.00
2023-03-17T22:13:33.772Z,8.73
2023-03-17T22:16:02.550Z,8.03
2023-03-17T22:18:38.516Z,7.95
2023-03-17T22:21:08.361Z,7.65
2023-03-17T22:23:41.630Z,35.85
2023-03-17T22:26:13.428Z,44.95
2023-03-17T22:28:51.571Z,25.13
2023-03-17T22:31:27.636Z,9.77
2023-03-17T22:34:02.624Z,7.60
2023-03-17T22:36:36.839Z,27.00
2023-03-17T22:39:10.649Z,24.65
2023-03-17T22:41:44.137Z,17.87
2023-03-17T22:44:22.254Z,7.50
2023-03-17T22:46:52.209Z,20.25
2023-03-17T22:49:25.654Z,9.13
2023-03-17T22:52:02.209Z,10.40
2023-03-17T22:54:35.227Z,7.97
2023-03-17T22:57:09.300Z,8.30
2023-03-17T22:59:41.403Z,8.40
2023-03-17T23:04:56.501Z,7.47
2023-03-17T23:07:25.861Z,7.53
2023-03-17T23:10:06.677Z,7.10
2023-03-17T23:12:52.464Z,7.43
2023-03-17T23:18:29.552Z,7.90
2023-03-17T23:21:06.739Z,7.23
2023-03-17T23:24:04.150Z,8.32
2023-03-17T23:26:36.334Z,7.35
2023-03-17T23:29:13.046Z,7.68
2023-03-17T23:31:54.524Z,8.15
2023-03-17T23:34:32.738Z,7.90
2023-03-17T23:37:07.906Z,7.93
2023-03-17T23:39:36.526Z,8.25
2023-03-17T23:42:04.940Z,7.82
2023-03-17T23:44:36.078Z,7.90
2023-03-17T23:47:04.446Z,8.67
2023-03-17T23:49:33.156Z,7.03
2023-03-17T23:52:09.027Z,7.15
2023-03-17T23:54:42.864Z,7.68
2023-03-17T23:57:14.208Z,7.45
2023-03-17T23:59:48.786Z,7.20
